(°C)
13°
16°
19°
21°
23°
25°
25°
(°C)
10°
13°
15°
17°
19°
21°
22°
S
S
S
S
SSZ
SSZ
SZ
(km/h)
8-16
8-18
10-19
13-20
16-22
17-23
17-24
(mm)
0
0
0
0
0
0
0
(%)
0
0
0
0
0
0
0

Sluneční výška

/ 15.8°
sun-icon
UV 7
05:47
21:32
Ubývající měsíc (211°)
23:11
08:06

METAR pro 51.15°S 51.54°V (UARR)

Čas Podmínky Teplota/
Rosný bod
Vítr Viditelnost Počasí Oblaky Tlak Změna Nezpracované
VFR 13°C / 6°C 340º 6kt >10km - Clouds and Visibility OK 1022 No Significant change UARR 260200Z 34003MPS CAVOK 13/06 Q1022 R04/CLRD70 NOSIG RMK QFE763/1018
VFR 11°C / 6°C 10º 8kt >10km - Clouds and Visibility OK 1022 No Significant change UARR 260130Z 01004MPS CAVOK 11/06 Q1022 R04/CLRD70 NOSIG RMK QFE763/1017
VFR 11°C / 6°C 20º 8kt >10km - Clouds and Visibility OK 1022 No Significant change UARR 260100Z 02004MPS CAVOK 11/06 Q1022 R04/CLRD70 NOSIG RMK QFE763/1017
VFR 9°C / 6°C 10º 8kt >10km - Clouds and Visibility OK 1022 No Significant change UARR 260030Z 01004MPS CAVOK 09/06 Q1022 R04/CLRD70 NOSIG RMK QFE763/1017
VFR 10°C / 6°C 340º 8kt >10km - Clouds and Visibility OK 1022 No Significant change UARR 260000Z 34004MPS CAVOK 10/06 Q1022 R04/CLRD70 NOSIG RMK QFE763/1017
VFR 11°C / 6°C 330º 8kt >10km - Clouds and Visibility OK 1022 No Significant change UARR 252330Z 33004MPS CAVOK 11/06 Q1022 R04/CLRD70 NOSIG RMK QFE763/1017
VFR 11°C / 6°C 340º 8kt >10km - Clouds and Visibility OK 1021 No Significant change UARR 252300Z 34004MPS CAVOK 11/06 Q1021 R04/CLRD70 NOSIG RMK QFE763/1017
VFR 12°C / 6°C 350º 6kt >10km - Clouds and Visibility OK 1021 No Significant change UARR 252230Z 35003MPS CAVOK 12/06 Q1021 R04/CLRD70 NOSIG RMK QFE762/1017
VFR 13°C / 6°C 360º 6kt >10km - Clouds and Visibility OK 1021 No Significant change UARR 252200Z 36003MPS CAVOK 13/06 Q1021 R04/CLRD70 NOSIG RMK QFE762/1017
VFR 14°C / 6°C 360º 6kt >10km - Clouds and Visibility OK 1021 No Significant change UARR 252130Z 36003MPS CAVOK 14/06 Q1021 R04/CLRD70 NOSIG RMK QFE762/1017
VFR 15°C / 5°C 360º 8kt >10km - Clouds and Visibility OK 1021 No Significant change UARR 252100Z 36004MPS CAVOK 15/05 Q1021 R04/CLRD70 NOSIG RMK QFE762/1016
VFR 17°C / 4°C 360º 8kt >10km - Clouds and Visibility OK 1021 No Significant change UARR 252030Z 36004MPS CAVOK 17/04 Q1021 R04/CLRD70 NOSIG RMK QFE762/1016
VFR 18°C / 4°C 10º 10kt >10km - Clouds and Visibility OK 1021 No Significant change UARR 252000Z 01005MPS CAVOK 18/04 Q1021 R04/CLRD70 NOSIG RMK QFE762/1016
VFR 18°C / 4°C 10º 8kt >10km - Clouds and Visibility OK 1020 No Significant change UARR 251930Z 01004MPS CAVOK 18/04 Q1020 R04/CLRD70 NOSIG RMK QFE762/1016
VFR 19°C / 4°C 10º 8kt >10km - Clouds and Visibility OK 1020 No Significant change UARR 251900Z 01004MPS CAVOK 19/04 Q1020 R04/CLRD70 NOSIG RMK QFE762/1016
VFR 20°C / 4°C 10º 10kt >10km - Clouds and Visibility OK 1020 No Significant change UARR 251830Z 01005MPS CAVOK 20/04 Q1020 R04/CLRD70 NOSIG RMK QFE761/1015
VFR 21°C / 4°C 350º 10kt >10km - Clouds and Visibility OK 1020 No Significant change UARR 251800Z 35005MPS CAVOK 21/04 Q1020 R04/CLRD70 NOSIG RMK QFE761/1015
VFR 22°C / 5°C 350º 10kt >10km - Clouds and Visibility OK 1019 No Significant change UARR 251730Z 35005MPS CAVOK 22/05 Q1019 R04/CLRD70 NOSIG RMK QFE761/1015
VFR 22°C / 5°C 350º 8kt >10km - Clouds and Visibility OK 1019 No Significant change UARR 251700Z 35004MPS CAVOK 22/05 Q1019 R04/CLRD70 NOSIG RMK QFE761/1014
VFR 23°C / 6°C 340º 8kt >10km - Clouds and Visibility OK 1019 No Significant change UARR 251630Z 34004MPS CAVOK 23/06 Q1019 R04/CLRD70 NOSIG RMK QFE761/1014
VFR 25°C / 6°C 330º 8kt >10km - Clouds and Visibility OK 1018 No Significant change UARR 251600Z 33004MPS CAVOK 25/06 Q1018 R04/CLRD70 NOSIG RMK QFE760/1014
VFR 26°C / 6°C 350º 10kt >10km - Clouds and Visibility OK 1018 No Significant change UARR 251530Z 35005MPS CAVOK 26/06 Q1018 R04/CLRD70 NOSIG RMK QFE760/1014
VFR 26°C / 6°C 320º 10kt >10km - Clouds and Visibility OK 1018 No Significant change UARR 251500Z 32005MPS CAVOK 26/06 Q1018 R04/CLRD70 NOSIG RMK QFE760/1013
VFR 27°C / 5°C 340º 12kt >10km - Clouds and Visibility OK 1018 No Significant change UARR 251430Z 34006MPS CAVOK 27/05 Q1018 R04/CLRD70 NOSIG RMK QFE760/1013

VFR

13°C / 6°C

[Víc]
Vítr 340º 6kt
Viditelnost >10km
Počasí -
Oblaky Clouds and Visibility OK
Tlak 1022
Změna No Significant change
Nezpracované UARR 260200Z 34003MPS CAVOK 13/06 Q1022 R04/CLRD70 NOSIG RMK QFE763/1018

VFR

11°C / 6°C

[Víc]
Vítr 10º 8kt
Viditelnost >10km
Počasí -
Oblaky Clouds and Visibility OK
Tlak 1022
Změna No Significant change
Nezpracované UARR 260130Z 01004MPS CAVOK 11/06 Q1022 R04/CLRD70 NOSIG RMK QFE763/1017

VFR

11°C / 6°C

[Víc]
Vítr 20º 8kt
Viditelnost >10km
Počasí -
Oblaky Clouds and Visibility OK
Tlak 1022
Změna No Significant change
Nezpracované UARR 260100Z 02004MPS CAVOK 11/06 Q1022 R04/CLRD70 NOSIG RMK QFE763/1017

VFR

9°C / 6°C

[Víc]
Vítr 10º 8kt
Viditelnost >10km
Počasí -
Oblaky Clouds and Visibility OK
Tlak 1022
Změna No Significant change
Nezpracované UARR 260030Z 01004MPS CAVOK 09/06 Q1022 R04/CLRD70 NOSIG RMK QFE763/1017

VFR

10°C / 6°C

[Víc]
Vítr 340º 8kt
Viditelnost >10km
Počasí -
Oblaky Clouds and Visibility OK
Tlak 1022
Změna No Significant change
Nezpracované UARR 260000Z 34004MPS CAVOK 10/06 Q1022 R04/CLRD70 NOSIG RMK QFE763/1017

VFR

11°C / 6°C

[Víc]
Vítr 330º 8kt
Viditelnost >10km
Počasí -
Oblaky Clouds and Visibility OK
Tlak 1022
Změna No Significant change
Nezpracované UARR 252330Z 33004MPS CAVOK 11/06 Q1022 R04/CLRD70 NOSIG RMK QFE763/1017

VFR

11°C / 6°C

[Víc]
Vítr 340º 8kt
Viditelnost >10km
Počasí -
Oblaky Clouds and Visibility OK
Tlak 1021
Změna No Significant change
Nezpracované UARR 252300Z 34004MPS CAVOK 11/06 Q1021 R04/CLRD70 NOSIG RMK QFE763/1017

VFR

12°C / 6°C

[Víc]
Vítr 350º 6kt
Viditelnost >10km
Počasí -
Oblaky Clouds and Visibility OK
Tlak 1021
Změna No Significant change
Nezpracované UARR 252230Z 35003MPS CAVOK 12/06 Q1021 R04/CLRD70 NOSIG RMK QFE762/1017

VFR

13°C / 6°C

[Víc]
Vítr 360º 6kt
Viditelnost >10km
Počasí -
Oblaky Clouds and Visibility OK
Tlak 1021
Změna No Significant change
Nezpracované UARR 252200Z 36003MPS CAVOK 13/06 Q1021 R04/CLRD70 NOSIG RMK QFE762/1017

VFR

14°C / 6°C

[Víc]
Vítr 360º 6kt
Viditelnost >10km
Počasí -
Oblaky Clouds and Visibility OK
Tlak 1021
Změna No Significant change
Nezpracované UARR 252130Z 36003MPS CAVOK 14/06 Q1021 R04/CLRD70 NOSIG RMK QFE762/1017

VFR

15°C / 5°C

[Víc]
Vítr 360º 8kt
Viditelnost >10km
Počasí -
Oblaky Clouds and Visibility OK
Tlak 1021
Změna No Significant change
Nezpracované UARR 252100Z 36004MPS CAVOK 15/05 Q1021 R04/CLRD70 NOSIG RMK QFE762/1016

VFR

17°C / 4°C

[Víc]
Vítr 360º 8kt
Viditelnost >10km
Počasí -
Oblaky Clouds and Visibility OK
Tlak 1021
Změna No Significant change
Nezpracované UARR 252030Z 36004MPS CAVOK 17/04 Q1021 R04/CLRD70 NOSIG RMK QFE762/1016

VFR

18°C / 4°C

[Víc]
Vítr 10º 10kt
Viditelnost >10km
Počasí -
Oblaky Clouds and Visibility OK
Tlak 1021
Změna No Significant change
Nezpracované UARR 252000Z 01005MPS CAVOK 18/04 Q1021 R04/CLRD70 NOSIG RMK QFE762/1016

VFR

18°C / 4°C

[Víc]
Vítr 10º 8kt
Viditelnost >10km
Počasí -
Oblaky Clouds and Visibility OK
Tlak 1020
Změna No Significant change
Nezpracované UARR 251930Z 01004MPS CAVOK 18/04 Q1020 R04/CLRD70 NOSIG RMK QFE762/1016

VFR

19°C / 4°C

[Víc]
Vítr 10º 8kt
Viditelnost >10km
Počasí -
Oblaky Clouds and Visibility OK
Tlak 1020
Změna No Significant change
Nezpracované UARR 251900Z 01004MPS CAVOK 19/04 Q1020 R04/CLRD70 NOSIG RMK QFE762/1016

VFR

20°C / 4°C

[Víc]
Vítr 10º 10kt
Viditelnost >10km
Počasí -
Oblaky Clouds and Visibility OK
Tlak 1020
Změna No Significant change
Nezpracované UARR 251830Z 01005MPS CAVOK 20/04 Q1020 R04/CLRD70 NOSIG RMK QFE761/1015

VFR

21°C / 4°C

[Víc]
Vítr 350º 10kt
Viditelnost >10km
Počasí -
Oblaky Clouds and Visibility OK
Tlak 1020
Změna No Significant change
Nezpracované UARR 251800Z 35005MPS CAVOK 21/04 Q1020 R04/CLRD70 NOSIG RMK QFE761/1015

VFR

22°C / 5°C

[Víc]
Vítr 350º 10kt
Viditelnost >10km
Počasí -
Oblaky Clouds and Visibility OK
Tlak 1019
Změna No Significant change
Nezpracované UARR 251730Z 35005MPS CAVOK 22/05 Q1019 R04/CLRD70 NOSIG RMK QFE761/1015

VFR

22°C / 5°C

[Víc]
Vítr 350º 8kt
Viditelnost >10km
Počasí -
Oblaky Clouds and Visibility OK
Tlak 1019
Změna No Significant change
Nezpracované UARR 251700Z 35004MPS CAVOK 22/05 Q1019 R04/CLRD70 NOSIG RMK QFE761/1014

VFR

23°C / 6°C

[Víc]
Vítr 340º 8kt
Viditelnost >10km
Počasí -
Oblaky Clouds and Visibility OK
Tlak 1019
Změna No Significant change
Nezpracované UARR 251630Z 34004MPS CAVOK 23/06 Q1019 R04/CLRD70 NOSIG RMK QFE761/1014

VFR

25°C / 6°C

[Víc]
Vítr 330º 8kt
Viditelnost >10km
Počasí -
Oblaky Clouds and Visibility OK
Tlak 1018
Změna No Significant change
Nezpracované UARR 251600Z 33004MPS CAVOK 25/06 Q1018 R04/CLRD70 NOSIG RMK QFE760/1014

VFR

26°C / 6°C

[Víc]
Vítr 350º 10kt
Viditelnost >10km
Počasí -
Oblaky Clouds and Visibility OK
Tlak 1018
Změna No Significant change
Nezpracované UARR 251530Z 35005MPS CAVOK 26/06 Q1018 R04/CLRD70 NOSIG RMK QFE760/1014

VFR

26°C / 6°C

[Víc]
Vítr 320º 10kt
Viditelnost >10km
Počasí -
Oblaky Clouds and Visibility OK
Tlak 1018
Změna No Significant change
Nezpracované UARR 251500Z 32005MPS CAVOK 26/06 Q1018 R04/CLRD70 NOSIG RMK QFE760/1013

VFR

27°C / 5°C

[Víc]
Vítr 340º 12kt
Viditelnost >10km
Počasí -
Oblaky Clouds and Visibility OK
Tlak 1018
Změna No Significant change
Nezpracované UARR 251430Z 34006MPS CAVOK 27/05 Q1018 R04/CLRD70 NOSIG RMK QFE760/1013

TAF pro 51.15°S 51.54°V (UARR)

From till


From till Wind 10º 10kt. Visibility 10km or more. Nil Significant Cloud.
Temporarly from till Wind 330º 12kt. Gust 23kt.

Nezpracované: TAF UARR 260204Z 2603/2612 01005MPS CAVOK TEMPO 2606/2612 33006G12MPS

Aktuální snímky ze satelitu a srážky pro 51.15°S 51.54°V

Značka polohy je umístěna na 51.15°S 51.54°V. [Víc]

Satelitní snímek v reálném čase kombinuje viditelné světlo během dne s infračerveným zářením během noci. V noci není obraz tmavý, protože infračervené záření dokáže detekovat teplotní rozdíly. Nízká oblačnost a mlha se bohužel těžko odlišují od pozemních teplot, a proto mohou být během noci téměř neviditelné. Satelitní snímky z Meteosatu pro Evropu jsou aktualizovány v reálném čase každých 5 minut. Snímky z GOES-16/GOES-17 (Severní a Jižní Amerika) a Himawari (Asie) jsou aktualizovány) každých 10 minut.

Copyright 2021 EUMETSAT / meteoblue. / Copyright 2021 meteoblue

Radar a krátkodobá předpověď srážek pro 51.15°S 51.54°V

Mrholení
Slabé
Mírná
Silné
Velmi silné
Kroupy

Značka lokality je umístněna na 51.15°S 51.54°V. Tato animace ukazuje srážky zaznamenané radarem za poslední hodinu a také 1h předpověď. Mrholení nebo slabé sněžení mohou být pro radar neviditelné. Intenzita srážek používá barevní kód od světle modré po tmavě fialovou.